Time;durP1;ratioP1;P1;durP2;ratioP2;P2;SDS_P1;SDS_P2;PMS_P1;PMS_P2;Temp;Humidity;BMP_temperature;BMP_pressure;BME280_temperature;BME280_humidity;BME280_pressure;Samples;Min_cycle;Max_cycle;Signal;HPM_P1;HPM_P2
2023/10/30 00:01:32;;;;;;;;;;;;;;;15.86;48.34;101271.88;5086147;28;1902;-38
2023/10/30 00:03:57;;;;;;;;;;;;;;;16.12;48.28;101273.00;5083911;28;1093;-38
2023/10/30 00:06:23;;;;;;;;;;;;;;;16.42;49.11;101256.00;5096643;28;1109;-37
2023/10/30 00:08:48;;;;;;;;;;;;;;;15.88;49.09;101266.97;5083447;28;1121;-40
2023/10/30 00:11:14;;;;;;;;;;;;;;;15.76;48.31;101275.28;5096823;28;1108;-37
2023/10/30 00:13:41;;;;;;;;;;;;;;;15.77;47.58;101267.88;5079399;28;1065;-37
2023/10/30 00:16:09;;;;;;;;;;;;;;;15.78;47.66;101269.56;5078521;28;1129;-37
2023/10/30 00:18:35;;;;;;;;;;;;;;;16.68;48.74;101272.69;5089099;28;1110;-38
2023/10/30 00:21:00;;;;;;;;;;;;;;;16.01;48.93;101263.81;5075975;28;1898;-38
2023/10/30 00:23:27;;;;;;;;;;;;;;;15.85;48.30;101270.22;5089448;28;1042;-37
2023/10/30 00:25:54;;;;;;;;;;;;;;;15.77;47.81;101259.66;5086807;28;1130;-38
2023/10/30 00:28:20;;;;;;;;;;;;;;;15.72;47.13;101258.53;5087614;28;1121;-38
2023/10/30 00:30:45;;;;;;;;;;;;;;;15.54;47.15;101265.19;5097151;28;1153;-40
2023/10/30 00:33:11;;;;;;;;;;;;;;;15.57;46.70;101253.69;5077810;28;1086;-39
2023/10/30 00:35:36;;;;;;;;;;;;;;;16.12;47.04;101256.53;5086064;28;1086;-38
2023/10/30 00:38:02;;;;;;;;;;;;;;;15.90;48.20;101256.56;5089908;28;1054;-42
2023/10/30 00:40:27;;;;;;;;;;;;;;;15.79;47.77;101257.50;5067447;28;1955;-41
2023/10/30 00:42:53;;;;;;;;;;;;;;;15.71;47.11;101250.53;5096443;28;1073;-40
2023/10/30 00:45:19;;;;;;;;;;;;;;;16.04;47.84;101255.06;5086136;28;1041;-37
2023/10/30 00:47:44;;;;;;;;;;;;;;;16.00;48.32;101255.84;5071057;28;2569;-40
2023/10/30 00:50:10;;;;;;;;;;;;;;;15.73;48.50;101262.91;5076548;28;1051;-39
2023/10/30 00:52:35;;;;;;;;;;;;;;;15.78;47.46;101258.59;5092299;28;1141;-42
2023/10/30 00:55:01;;;;;;;;;;;;;;;15.62;47.10;101255.66;5068302;28;1125;-41
2023/10/30 00:57:26;;;;;;;;;;;;;;;15.49;47.04;101250.56;5089814;28;1086;-39
2023/10/30 00:59:53;;;;;;;;;;;;;;;16.14;47.32;101245.28;5085242;28;1082;-41
2023/10/30 01:02:18;;;;;;;;;;;;;;;15.95;48.09;101253.03;5095765;28;1902;-40
2023/10/30 01:04:44;;;;;;;;;;;;;;;15.70;47.67;101252.47;5076775;28;879;-41
2023/10/30 01:07:10;;;;;;;;;;;;;;;15.59;47.21;101256.19;5096260;28;1077;-41
2023/10/30 01:09:36;;;;;;;;;;;;;;;15.50;46.83;101264.03;5068959;28;1389;-40
2023/10/30 01:12:01;;;;;;;;;;;;;;;15.36;46.94;101263.56;5089407;28;1066;-39
2023/10/30 01:14:27;;;;;;;;;;;;;;;15.48;46.28;101259.88;5067317;28;1131;-40
2023/10/30 01:16:52;;;;;;;;;;;;;;;16.61;46.72;101255.59;5066622;28;1074;-40
2023/10/30 01:19:18;;;;;;;;;;;;;;;15.66;48.49;101258.72;5084444;28;1046;-41
2023/10/30 01:21:43;;;;;;;;;;;;;;;15.77;48.41;101252.28;5082577;28;1917;-40
2023/10/30 01:24:09;;;;;;;;;;;;;;;16.32;49.00;101258.63;5096129;28;1022;-42
2023/10/30 01:26:35;;;;;;;;;;;;;;;15.89;48.80;101263.13;5093359;28;1045;-37
2023/10/30 01:29:01;;;;;;;;;;;;;;;15.63;48.55;101251.84;5086308;28;881;-41
2023/10/30 01:31:29;;;;;;;;;;;;;;;15.73;47.43;101257.44;5082253;28;1124;-37
2023/10/30 01:33:54;;;;;;;;;;;;;;;16.86;48.31;101257.72;5079595;28;1291;-37
2023/10/30 01:36:20;;;;;;;;;;;;;;;16.07;49.19;101265.56;5065164;28;1157;-36
2023/10/30 01:38:46;;;;;;;;;;;;;;;15.87;48.76;101262.56;5075005;28;1611;-36
2023/10/30 01:41:12;;;;;;;;;;;;;;;15.71;47.97;101256.88;5098382;28;1988;-36
2023/10/30 01:43:37;;;;;;;;;;;;;;;15.73;47.51;101257.44;5094563;28;1122;-41
2023/10/30 01:46:03;;;;;;;;;;;;;;;15.57;47.18;101258.31;5096414;28;1189;-41
2023/10/30 01:48:32;;;;;;;;;;;;;;;15.47;47.19;101269.16;5089044;28;1008;-38
2023/10/30 01:50:57;;;;;;;;;;;;;;;16.32;47.80;101263.31;5085258;28;1117;-37
2023/10/30 01:53:23;;;;;;;;;;;;;;;15.84;48.05;101268.56;5078134;28;1280;-37
2023/10/30 01:55:48;;;;;;;;;;;;;;;15.66;47.87;101262.28;5064226;28;1058;-36
2023/10/30 01:58:14;;;;;;;;;;;;;;;15.61;47.15;101267.69;5079275;28;1121;-38
2023/10/30 02:00:40;;;;;;;;;;;;;;;16.44;48.05;101258.50;5074073;28;1979;-36
2023/10/30 02:03:05;;;;;;;;;;;;;;;15.79;48.85;101263.00;5092700;28;1818;-38
2023/10/30 02:05:31;;;;;;;;;;;;;;;15.68;48.13;101265.63;5070742;28;939;-36
2023/10/30 02:07:56;;;;;;;;;;;;;;;16.42;48.68;101263.41;5081100;28;1609;-39
2023/10/30 02:10:22;;;;;;;;;;;;;;;15.84;48.92;101257.59;5064064;28;1214;-41
2023/10/30 02:12:52;;;;;;;;;;;;;;;15.76;47.95;101255.28;5087816;28;1026;-36
2023/10/30 02:15:17;;;;;;;;;;;;;;;15.60;47.49;101254.25;5098952;28;1054;-36
2023/10/30 02:17:43;;;;;;;;;;;;;;;16.47;48.15;101254.41;5070481;28;1303;-37
2023/10/30 02:20:10;;;;;;;;;;;;;;;15.84;48.74;101263.09;5081985;28;1169;-36
2023/10/30 02:22:35;;;;;;;;;;;;;;;15.69;48.20;101250.81;5080418;28;1909;-36
2023/10/30 02:25:01;;;;;;;;;;;;;;;15.80;47.28;101261.94;5098311;28;1164;-39
2023/10/30 02:27:27;;;;;;;;;;;;;;;15.58;47.06;101270.97;5088538;28;1225;-37
2023/10/30 02:29:52;;;;;;;;;;;;;;;16.35;47.47;101274.59;5086417;28;1229;-37
2023/10/30 02:32:18;;;;;;;;;;;;;;;15.95;48.51;101267.59;5070171;28;1162;-42
2023/10/30 02:34:43;;;;;;;;;;;;;;;15.65;48.27;101277.06;5085002;28;1156;-37
2023/10/30 02:37:09;;;;;;;;;;;;;;;15.59;47.71;101272.63;5088524;28;1174;-36
2023/10/30 02:39:34;;;;;;;;;;;;;;;15.55;47.25;101276.97;5060258;28;1211;-39
2023/10/30 02:42:01;;;;;;;;;;;;;;;16.38;47.79;101275.97;5082328;28;1974;-37
2023/10/30 02:44:28;;;;;;;;;;;;;;;15.81;48.37;101269.91;5081470;28;1047;-37
2023/10/30 02:46:54;;;;;;;;;;;;;;;15.69;48.07;101271.94;5079840;28;1490;-37
2023/10/30 02:49:20;;;;;;;;;;;;;;;15.51;47.72;101254.69;5080605;28;1082;-38
2023/10/30 02:51:45;;;;;;;;;;;;;;;15.56;47.09;101262.19;5088849;28;1197;-39
2023/10/30 02:54:11;;;;;;;;;;;;;;;15.46;46.99;101267.50;5079138;28;1524;-38
2023/10/30 02:56:36;;;;;;;;;;;;;;;15.50;46.87;101266.75;5087579;28;1128;-40
2023/10/30 02:59:02;;;;;;;;;;;;;;;16.10;47.66;101257.88;5073482;28;1107;-37
2023/10/30 03:01:28;;;;;;;;;;;;;;;15.78;47.58;101264.91;5077287;28;1902;-40
2023/10/30 03:03:54;;;;;;;;;;;;;;;17.08;47.65;101263.13;5094589;28;1539;-38
2023/10/30 03:06:21;;;;;;;;;;;;;;;16.01;49.27;101263.81;5064106;28;1357;-39
2023/10/30 03:08:47;;;;;;;;;;;;;;;15.85;48.56;101262.84;5094649;28;1111;-39
2023/10/30 03:11:12;;;;;;;;;;;;;;;16.44;48.92;101266.72;5097840;28;1059;-39
2023/10/30 03:13:38;;;;;;;;;;;;;;;16.20;48.89;101261.56;5084235;28;1134;-39
2023/10/30 03:16:03;;;;;;;;;;;;;;;15.87;48.43;101259.81;5079251;28;1525;-40
2023/10/30 03:18:29;;;;;;;;;;;;;;;15.70;47.85;101274.41;5096420;28;1232;-37
2023/10/30 03:20:54;;;;;;;;;;;;;;;15.60;47.33;101273.44;5097712;28;1910;-39
2023/10/30 03:23:20;;;;;;;;;;;;;;;16.65;48.17;101272.38;5083674;28;1133;-38
2023/10/30 03:25:46;;;;;;;;;;;;;;;15.96;48.66;101285.69;5097633;28;1026;-38
2023/10/30 03:28:12;;;;;;;;;;;;;;;15.81;48.09;101275.41;5075303;28;1075;-37
2023/10/30 03:30:37;;;;;;;;;;;;;;;15.62;47.77;101276.78;5083917;28;1497;-42
2023/10/30 03:33:03;;;;;;;;;;;;;;;15.63;47.57;101268.28;5079909;28;1079;-37
2023/10/30 03:35:29;;;;;;;;;;;;;;;16.37;48.37;101271.59;5087781;28;1142;-37
2023/10/30 03:37:55;;;;;;;;;;;;;;;15.89;48.19;101272.22;5090065;28;1105;-40
2023/10/30 03:40:21;;;;;;;;;;;;;;;15.68;48.16;101270.25;5086739;28;1054;-39
2023/10/30 03:42:46;;;;;;;;;;;;;;;16.37;48.43;101272.41;5083203;28;1988;-39
2023/10/30 03:45:12;;;;;;;;;;;;;;;15.84;48.65;101271.31;5094553;28;1360;-37
2023/10/30 03:47:37;;;;;;;;;;;;;;;15.71;48.33;101267.84;5083624;28;1049;-40
2023/10/30 03:50:03;;;;;;;;;;;;;;;15.72;47.54;101269.50;5097111;28;891;-38
2023/10/30 03:52:29;;;;;;;;;;;;;;;15.59;47.11;101272.63;5080173;28;1132;-37
2023/10/30 03:54:54;;;;;;;;;;;;;;;15.54;46.66;101269.81;5085898;28;1017;-37
2023/10/30 03:57:20;;;;;;;;;;;;;;;15.50;46.61;101268.66;5093892;28;1054;-39
2023/10/30 03:59:45;;;;;;;;;;;;;;;16.43;47.33;101263.13;5086277;28;1074;-40
2023/10/30 04:02:10;;;;;;;;;;;;;;;15.74;47.97;101264.59;5089448;28;1913;-38
2023/10/30 04:04:36;;;;;;;;;;;;;;;15.64;47.51;101261.72;5096769;28;1114;-37
2023/10/30 04:07:02;;;;;;;;;;;;;;;15.51;46.91;101264.84;5083122;28;843;-37
2023/10/30 04:09:28;;;;;;;;;;;;;;;16.54;47.55;101266.00;5096328;28;1097;-39
2023/10/30 04:11:54;;;;;;;;;;;;;;;15.89;48.43;101271.34;5079114;28;1121;-42
2023/10/30 04:14:19;;;;;;;;;;;;;;;15.66;47.71;101278.75;5086901;28;2358;-39
2023/10/30 04:16:45;;;;;;;;;;;;;;;15.64;47.25;101275.44;5088459;28;2119;-40
2023/10/30 04:19:10;;;;;;;;;;;;;;;15.45;47.15;101265.88;5093016;28;1950;-40
2023/10/30 04:21:36;;;;;;;;;;;;;;;16.72;47.54;101267.50;5082493;28;2066;-40
2023/10/30 04:24:02;;;;;;;;;;;;;;;15.92;48.49;101270.84;5092604;28;2105;-40
2023/10/30 04:26:27;;;;;;;;;;;;;;;17.08;48.43;101274.13;5095373;28;1796;-41
2023/10/30 04:28:52;;;;;;;;;;;;;;;16.80;49.79;101274.41;5080101;28;2069;-40
2023/10/30 04:31:18;;;;;;;;;;;;;;;16.33;49.60;101271.28;5085602;28;964;-37
2023/10/30 04:33:43;;;;;;;;;;;;;;;16.14;49.00;101270.00;5092476;28;1126;-40
2023/10/30 04:36:09;;;;;;;;;;;;;;;15.79;48.54;101276.69;5081864;28;1125;-42
2023/10/30 04:38:34;;;;;;;;;;;;;;;15.82;48.09;101270.72;5094868;28;1534;-43
2023/10/30 04:41:06;;;;;;;;;;;;;;;15.77;47.52;101262.41;5075815;28;1897;-39
2023/10/30 04:43:32;;;;;;;;;;;;;;;16.60;48.18;101264.94;5092591;28;1277;-37
2023/10/30 04:45:57;;;;;;;;;;;;;;;16.10;49.55;101271.59;5085276;28;947;-41
2023/10/30 04:48:23;;;;;;;;;;;;;;;15.91;48.70;101264.53;5077976;28;991;-39
2023/10/30 04:50:48;;;;;;;;;;;;;;;15.81;47.98;101269.06;5082909;28;1216;-40
2023/10/30 04:53:14;;;;;;;;;;;;;;;15.78;47.87;101264.06;5079274;28;1161;-41
2023/10/30 04:55:39;;;;;;;;;;;;;;;16.22;48.78;101269.53;5079334;28;1122;-41
2023/10/30 04:58:05;;;;;;;;;;;;;;;16.18;49.88;101262.91;5088226;28;1109;-43
2023/10/30 05:00:31;;;;;;;;;;;;;;;16.14;49.48;101270.00;5087654;28;1970;-41
2023/10/30 05:02:56;;;;;;;;;;;;;;;16.08;49.06;101272.66;5090837;28;983;-44
2023/10/30 05:05:22;;;;;;;;;;;;;;;15.95;47.72;101267.59;5077346;28;1011;-38
2023/10/30 05:07:47;;;;;;;;;;;;;;;15.80;47.57;101267.44;5083817;28;989;-43
2023/10/30 05:10:12;;;;;;;;;;;;;;;15.76;47.11;101279.97;5092554;28;1323;-41
2023/10/30 05:12:38;;;;;;;;;;;;;;;15.74;46.82;101294.75;5085661;28;977;-42
2023/10/30 05:15:04;;;;;;;;;;;;;;;15.70;46.58;101292.78;5100844;28;981;-41
2023/10/30 05:17:30;;;;;;;;;;;;;;;15.60;46.11;101296.22;5097186;28;1148;-45
2023/10/30 05:19:55;;;;;;;;;;;;;;;16.64;48.06;101300.94;5085221;28;1461;-44
2023/10/30 05:22:21;;;;;;;;;;;;;;;15.95;48.58;101292.28;5098939;28;1926;-42
2023/10/30 05:24:46;;;;;;;;;;;;;;;15.91;47.79;101297.44;5093825;28;1038;-44
2023/10/30 05:27:12;;;;;;;;;;;;;;;15.72;47.51;101288.72;5085055;28;1235;-41
2023/10/30 05:29:37;;;;;;;;;;;;;;;16.54;48.28;101305.25;5090417;28;2065;-46
2023/10/30 05:32:06;;;;;;;;;;;;;;;16.03;48.62;101302.81;5084147;28;1244;-38
2023/10/30 05:34:32;;;;;;;;;;;;;;;17.19;46.93;101293.41;5091438;28;1094;-41
2023/10/30 05:36:58;;;;;;;;;;;;;;;16.65;48.29;101316.31;5097708;28;1129;-42
2023/10/30 05:39:24;;;;;;;;;;;;;;;16.46;48.96;101316.69;5062993;28;1320;-40
2023/10/30 05:41:49;;;;;;;;;;;;;;;16.32;49.55;101329.19;5081688;28;1975;-40
2023/10/30 05:44:15;;;;;;;;;;;;;;;16.21;49.72;101320.00;5078823;28;1030;-43
2023/10/30 05:46:41;;;;;;;;;;;;;;;16.10;50.16;101326.47;5082917;28;1244;-42
2023/10/30 05:49:06;;;;;;;;;;;;;;;16.06;50.43;101321.50;5098972;28;1126;-42
2023/10/30 05:51:32;;;;;;;;;;;;;;;15.98;50.67;101324.69;5084491;28;1319;-42
2023/10/30 05:53:57;;;;;;;;;;;;;;;15.89;51.11;101337.19;5098159;28;1091;-41
2023/10/30 05:56:23;;;;;;;;;;;;;;;15.83;51.26;101328.06;5084283;28;1212;-41
2023/10/30 05:58:49;;;;;;;;;;;;;;;15.77;51.62;101328.22;5085389;28;1828;-44
2023/10/30 06:01:14;;;;;;;;;;;;;;;17.04;48.99;101341.69;5096885;28;1901;-41
2023/10/30 06:03:40;;;;;;;;;;;;;;;16.74;49.47;101321.06;5098776;28;1106;-46
2023/10/30 06:06:06;;;;;;;;;;;;;;;16.33;50.79;101331.66;5098240;28;1142;-41
2023/10/30 06:08:31;;;;;;;;;;;;;;;16.16;51.29;101330.91;5106648;28;998;-44
2023/10/30 06:10:58;;;;;;;;;;;;;;;16.02;51.89;101336.81;5080200;28;1054;-41
2023/10/30 06:13:23;;;;;;;;;;;;;;;15.95;52.01;101333.44;5089475;28;1007;-45
2023/10/30 06:15:49;;;;;;;;;;;;;;;15.88;52.26;101330.06;5084718;28;1165;-43
2023/10/30 06:18:15;;;;;;;;;;;;;;;17.32;49.09;101341.59;5095933;28;1163;-43
2023/10/30 06:20:40;;;;;;;;;;;;;;;16.83;50.50;101342.56;5081456;28;1909;-45
2023/10/30 06:23:06;;;;;;;;;;;;;;;16.45;51.66;101344.41;5088812;28;1070;-45
2023/10/30 06:25:31;;;;;;;;;;;;;;;16.26;52.04;101339.28;5096013;28;1023;-45
2023/10/30 06:27:57;;;;;;;;;;;;;;;16.17;52.25;101341.66;5098287;28;1022;-44
2023/10/30 06:30:22;;;;;;;;;;;;;;;16.18;53.12;101345.22;5092667;28;1767;-47
2023/10/30 06:32:48;;;;;;;;;;;;;;;16.06;53.33;101350.81;5089077;28;1067;-48
2023/10/30 06:35:13;;;;;;;;;;;;;;;16.89;51.67;101352.53;5080111;28;1011;-46
2023/10/30 06:37:39;;;;;;;;;;;;;;;16.80;51.61;101352.13;5094990;28;1123;-46
2023/10/30 06:40:04;;;;;;;;;;;;;;;16.40;52.79;101353.41;5079699;28;1082;-46
2023/10/30 06:42:30;;;;;;;;;;;;;;;16.28;53.17;101350.81;5092070;28;1979;-47
2023/10/30 06:44:55;;;;;;;;;;;;;;;16.63;52.44;101357.75;5097724;28;1102;-50
2023/10/30 06:47:21;;;;;;;;;;;;;;;17.30;50.55;101355.59;5097255;28;1126;-45
2023/10/30 06:49:47;;;;;;;;;;;;;;;16.67;52.39;101366.31;5097472;28;1170;-47
2023/10/30 06:52:12;;;;;;;;;;;;;;;16.48;52.86;101365.84;5092216;28;1325;-44
2023/10/30 06:54:38;;;;;;;;;;;;;;;16.31;53.04;101368.69;5078300;28;1428;-43
2023/10/30 06:57:04;;;;;;;;;;;;;;;16.32;53.26;101373.91;5077197;28;1132;-47
2023/10/30 06:59:29;;;;;;;;;;;;;;;17.42;50.49;101369.16;5090372;28;1795;-42
2023/10/30 07:01:55;;;;;;;;;;;;;;;16.74;52.31;101362.25;5087672;28;1974;-43
2023/10/30 07:04:20;;;;;;;;;;;;;;;16.47;52.94;101358.72;5080561;28;1343;-44
2023/10/30 07:06:46;;;;;;;;;;;;;;;16.33;53.17;101361.03;5084697;28;991;-46
2023/10/30 07:09:12;;;;;;;;;;;;;;;16.23;53.38;101353.50;5087053;28;1554;-44
2023/10/30 07:11:39;;;;;;;;;;;;;;;16.18;53.47;101356.19;5090194;28;1070;-47
2023/10/30 07:14:05;;;;;;;;;;;;;;;16.55;52.88;101358.22;5086715;28;1015;-46
2023/10/30 07:16:30;;;;;;;;;;;;;;;17.22;51.13;101348.69;5085531;28;1030;-45
2023/10/30 07:18:56;;;;;;;;;;;;;;;16.65;52.50;101350.09;5093025;28;1101;-48
2023/10/30 07:21:21;;;;;;;;;;;;;;;16.39;53.05;101355.31;5084768;28;1910;-45
2023/10/30 07:23:47;;;;;;;;;;;;;;;16.22;53.37;101341.69;5091250;28;1310;-50
2023/10/30 07:26:12;;;;;;;;;;;;;;;16.14;53.56;101355.84;5081167;28;1311;-46
2023/10/30 07:28:38;;;;;;;;;;;;;;;17.30;51.34;101360.28;5093825;28;1810;-46
2023/10/30 07:31:03;;;;;;;;;;;;;;;16.82;52.17;101360.16;5079881;28;1120;-46
2023/10/30 07:33:29;;;;;;;;;;;;;;;16.48;53.27;101357.59;5079037;28;974;-48
2023/10/30 07:35:54;;;;;;;;;;;;;;;16.32;53.69;101362.94;5095472;28;1235;-46
2023/10/30 07:38:20;;;;;;;;;;;;;;;16.19;53.77;101363.34;5077771;28;1163;-45
2023/10/30 07:40:45;;;;;;;;;;;;;;;16.15;53.79;101364.94;5088704;28;1983;-48
2023/10/30 07:43:11;;;;;;;;;;;;;;;16.51;53.36;101365.31;5082625;28;1288;-46
2023/10/30 07:45:40;;;;;;;;;;;;;;;17.17;51.73;101367.06;5085015;28;1120;-47
2023/10/30 07:48:06;;;;;;;;;;;;;;;16.57;53.32;101358.81;5083616;28;1047;-45
2023/10/30 07:50:32;;;;;;;;;;;;;;;16.42;53.35;101367.69;5092808;28;1142;-49
2023/10/30 07:52:59;;;;;;;;;;;;;;;16.31;53.88;101366.75;5094024;28;1276;-47
2023/10/30 07:55:24;;;;;;;;;;;;;;;16.24;53.80;101360.63;5090701;28;1058;-46
2023/10/30 07:57:50;;;;;;;;;;;;;;;16.17;54.05;101371.84;5080649;28;1112;-47
2023/10/30 08:00:15;;;;;;;;;;;;;;;17.56;51.09;101369.53;5076169;28;1917;-45
2023/10/30 08:02:41;;;;;;;;;;;;;;;16.88;52.70;101367.31;5088745;28;1986;-50
2023/10/30 08:05:07;;;;;;;;;;;;;;;16.53;53.63;101361.22;5086416;28;1179;-44
2023/10/30 08:07:35;;;;;;;;;;;;;;;16.40;53.67;101364.41;5093900;28;1106;-48
2023/10/30 08:10:01;;;;;;;;;;;;;;;16.30;54.01;101358.78;5096149;28;1307;-43
2023/10/30 08:12:27;;;;;;;;;;;;;;;16.24;54.09;101360.63;5086893;28;1185;-44
2023/10/30 08:14:53;;;;;;;;;;;;;;;16.06;54.06;101348.06;5075797;28;1339;-44
2023/10/30 08:17:19;;;;;;;;;;;;;;;16.42;53.86;101359.47;5087514;28;1304;-50
2023/10/30 08:19:44;;;;;;;;;;;;;;;17.28;51.85;101352.31;5079731;28;1323;-44
2023/10/30 08:22:10;;;;;;;;;;;;;;;16.69;53.37;101356.72;5089011;28;1917;-46
2023/10/30 08:24:35;;;;;;;;;;;;;;;16.48;53.94;101357.59;5082133;28;1312;-46
2023/10/30 08:27:01;;;;;;;;;;;;;;;16.37;54.05;101356.69;5087033;28;1252;-44
2023/10/30 08:29:27;;;;;;;;;;;;;;;16.29;54.03;101343.41;5085413;28;1795;-45
2023/10/30 08:31:52;;;;;;;;;;;;;;;16.19;54.40;101353.19;5082632;28;1323;-47
2023/10/30 08:34:18;;;;;;;;;;;;;;;16.13;54.54;101353.38;5077872;28;1257;-49
2023/10/30 08:36:44;;;;;;;;;;;;;;;16.81;53.46;101347.50;5092173;28;1030;-46
2023/10/30 08:39:09;;;;;;;;;;;;;;;17.19;52.18;101343.69;5081663;28;1304;-48
2023/10/30 08:41:36;;;;;;;;;;;;;;;16.66;53.53;101338.03;5092254;28;1975;-46
2023/10/30 08:44:02;;;;;;;;;;;;;;;16.52;53.87;101342.28;5093908;28;1050;-49
2023/10/30 08:46:28;;;;;;;;;;;;;;;16.42;54.28;101335.59;5087322;28;1428;-45
2023/10/30 08:48:55;;;;;;;;;;;;;;;16.32;54.30;101335.47;5083650;28;1387;-44
2023/10/30 08:51:21;;;;;;;;;;;;;;;16.26;54.22;101331.03;5093172;28;1308;-46
2023/10/30 08:53:46;;;;;;;;;;;;;;;16.30;54.16;101321.22;5082758;28;1283;-45
2023/10/30 08:56:12;;;;;;;;;;;;;;;17.45;51.90;101322.69;5089142;28;1355;-48
2023/10/30 08:58:37;;;;;;;;;;;;;;;16.78;53.59;101329.63;5084566;28;1788;-49
2023/10/30 09:01:03;;;;;;;;;;;;;;;16.53;54.24;101319.22;5088701;28;1967;-47
2023/10/30 09:03:29;;;;;;;;;;;;;;;16.43;54.14;101326.25;5092321;28;1391;-47
2023/10/30 09:05:55;;;;;;;;;;;;;;;16.30;54.32;101326.69;5088098;28;1043;-45
2023/10/30 09:08:20;;;;;;;;;;;;;;;16.27;54.41;101318.13;5090008;28;1311;-52
2023/10/30 09:10:46;;;;;;;;;;;;;;;16.69;53.84;101311.94;5098286;28;1386;-47
2023/10/30 09:13:11;;;;;;;;;;;;;;;17.23;52.50;101308.28;5085938;28;1136;-50
2023/10/30 09:15:37;;;;;;;;;;;;;;;16.70;54.06;101308.94;5087684;28;1148;-48
2023/10/30 09:18:02;;;;;;;;;;;;;;;16.56;54.46;101302.22;5093259;28;1104;-45
2023/10/30 09:20:28;;;;;;;;;;;;;;;16.46;54.56;101307.63;5083445;28;1015;-48
2023/10/30 09:22:53;;;;;;;;;;;;;;;16.34;54.66;101296.78;5079643;28;1914;-47
2023/10/30 09:25:19;;;;;;;;;;;;;;;16.26;54.78;101298.09;5081635;28;1178;-46
2023/10/30 09:27:45;;;;;;;;;;;;;;;16.53;54.57;101294.53;5093547;28;1213;-45
2023/10/30 09:30:11;;;;;;;;;;;;;;;17.34;52.51;101301.75;5095989;28;2199;-49
2023/10/30 09:32:38;;;;;;;;;;;;;;;16.76;54.19;101291.44;5091336;28;1347;-44
2023/10/30 09:35:04;;;;;;;;;;;;;;;16.53;54.50;101280.78;5077983;28;1055;-44
2023/10/30 09:37:30;;;;;;;;;;;;;;;16.43;54.93;101289.75;5084648;28;1300;-47
2023/10/30 09:39:56;;;;;;;;;;;;;;;16.32;55.02;101288.81;5096878;28;1029;-45
2023/10/30 09:42:21;;;;;;;;;;;;;;;16.32;54.83;101279.78;5069371;28;1972;-49
2023/10/30 09:44:47;;;;;;;;;;;;;;;16.22;55.02;101280.50;5085320;28;1113;-45
2023/10/30 09:47:12;;;;;;;;;;;;;;;16.77;54.39;101278.50;5077606;28;1441;-47
2023/10/30 09:49:38;;;;;;;;;;;;;;;17.35;52.95;101280.56;5080895;28;1113;-46
2023/10/30 09:52:05;;;;;;;;;;;;;;;16.74;54.39;101288.09;5098717;28;1058;-48
2023/10/30 09:54:31;;;;;;;;;;;;;;;16.57;54.87;101281.94;5084282;28;1217;-45
2023/10/30 09:56:57;;;;;;;;;;;;;;;16.46;55.03;101274.69;5080853;28;1398;-44
2023/10/30 09:59:22;;;;;;;;;;;;;;;16.40;54.80;101271.06;5068024;28;1864;-48
2023/10/30 10:01:48;;;;;;;;;;;;;;;16.38;54.99;101263.09;5092112;28;1918;-48
2023/10/30 10:04:15;;;;;;;;;;;;;;;16.28;55.09;101268.47;5078259;28;1030;-46
2023/10/30 10:06:42;;;;;;;;;;;;;;;16.20;55.04;101257.97;5094823;28;1063;-46
2023/10/30 10:09:07;;;;;;;;;;;;;;;16.18;54.95;101260.16;5071776;28;1036;-47
2023/10/30 10:11:36;;;;;;;;;;;;;;;17.40;53.03;101266.88;5086093;28;1371;-45
2023/10/30 10:14:02;;;;;;;;;;;;;;;16.71;54.65;101266.66;5080201;28;1137;-47
2023/10/30 10:16:31;;;;;;;;;;;;;;;16.49;55.32;101253.03;5085113;28;1106;-47
2023/10/30 10:18:56;;;;;;;;;;;;;;;16.40;55.07;101262.84;5079633;28;1095;-46
2023/10/30 10:21:22;;;;;;;;;;;;;;;16.26;55.49;101254.19;5083226;28;1906;-42
2023/10/30 10:23:48;;;;;;;;;;;;;;;16.23;55.33;101255.53;5077965;28;1166;-47
2023/10/30 10:26:14;;;;;;;;;;;;;;;17.37;53.40;101251.72;5076928;28;1133;-48
2023/10/30 10:28:40;;;;;;;;;;;;;;;16.95;54.37;101249.84;5085559;28;1720;-46
2023/10/30 10:31:05;;;;;;;;;;;;;;;16.60;55.01;101245.72;5088351;28;1355;-46
2023/10/30 10:33:32;;;;;;;;;;;;;;;16.50;55.33;101248.38;5090752;28;1095;-43
2023/10/30 10:36:00;;;;;;;;;;;;;;;16.41;55.23;101248.84;5084358;28;1114;-44
2023/10/30 10:38:26;;;;;;;;;;;;;;;16.31;55.55;101246.00;5089121;28;1367;-45
2023/10/30 10:40:51;;;;;;;;;;;;;;;16.25;55.55;101244.31;5076750;28;1982;-44
2023/10/30 10:43:18;;;;;;;;;;;;;;;16.22;55.36;101239.34;5090566;28;1344;-47
2023/10/30 10:45:45;;;;;;;;;;;;;;;17.05;54.56;101244.41;5087034;28;940;-43
2023/10/30 10:48:11;;;;;;;;;;;;;;;16.88;54.79;101238.22;5086961;28;1146;-47
2023/10/30 10:50:37;;;;;;;;;;;;;;;16.60;55.32;101242.97;5083483;28;1123;-45
2023/10/30 10:53:03;;;;;;;;;;;;;;;16.41;55.60;101248.84;5087226;28;1130;-44
2023/10/30 10:55:28;;;;;;;;;;;;;;;16.35;55.70;101236.16;5089216;28;1110;-48
2023/10/30 10:57:57;;;;;;;;;;;;;;;16.34;55.50;101241.91;5092519;28;1004;-46
2023/10/30 11:00:24;;;;;;;;;;;;;;;16.26;55.40;101229.50;5092465;28;1886;-46
2023/10/30 11:02:51;;;;;;;;;;;;;;;17.10;54.50;101241.69;5091265;28;1992;-47
2023/10/30 11:05:16;;;;;;;;;;;;;;;16.91;54.72;101232.22;5067906;28;1087;-45
2023/10/30 11:07:44;;;;;;;;;;;;;;;16.65;55.48;101233.94;5079300;28;1118;-44
2023/10/30 11:10:16;;;;;;;;;;;;;;;16.48;55.68;101228.59;5087221;28;952;-48
2023/10/30 11:12:44;;;;;;;;;;;;;;;16.38;55.90;101235.66;5069276;28;1047;-47
2023/10/30 11:15:15;;;;;;;;;;;;;;;16.29;55.74;101228.97;5076697;28;1125;-48
2023/10/30 11:17:40;;;;;;;;;;;;;;;16.20;55.83;101228.63;5065885;28;1003;-43
2023/10/30 11:20:09;;;;;;;;;;;;;;;16.19;55.64;101226.16;5078387;28;1042;-47
2023/10/30 11:22:35;;;;;;;;;;;;;;;16.15;55.52;101222.28;5089865;28;1909;-49
2023/10/30 11:25:01;;;;;;;;;;;;;;;16.64;55.29;101227.63;5089029;28;1138;-43
2023/10/30 11:27:26;;;;;;;;;;;;;;;17.26;54.40;101222.53;5093788;28;1289;-44
2023/10/30 11:29:52;;;;;;;;;;;;;;;16.72;55.70;101224.38;5092318;28;2127;-47
2023/10/30 11:32:18;;;;;;;;;;;;;;;16.51;56.03;101217.06;5083955;28;1304;-50
2023/10/30 11:34:43;;;;;;;;;;;;;;;16.40;55.89;101221.66;5083860;28;1014;-43
2023/10/30 11:37:12;;;;;;;;;;;;;;;16.32;56.08;101213.91;5096382;28;1208;-44
2023/10/30 11:39:42;;;;;;;;;;;;;;;16.28;55.77;101207.28;5095719;28;1145;-46
2023/10/30 11:42:22;;;;;;;;;;;;;;;16.57;55.99;101207.81;5075909;28;1981;-48
2023/10/30 11:44:49;;;;;;;;;;;;;;;17.20;54.71;101205.19;5077644;28;1060;-49
2023/10/30 11:47:14;;;;;;;;;;;;;;;16.68;56.03;101208.72;5086500;28;1097;-49
2023/10/30 11:49:40;;;;;;;;;;;;;;;16.50;56.31;101202.53;5084790;28;1122;-49
2023/10/30 11:52:10;;;;;;;;;;;;;;;16.45;56.17;101202.47;5086169;28;1045;-49
2023/10/30 11:54:36;;;;;;;;;;;;;;;16.36;55.96;101207.63;5094039;28;1169;-47
2023/10/30 11:57:01;;;;;;;;;;;;;;;16.30;55.69;101200.47;5066027;28;1023;-46
2023/10/30 11:59:27;;;;;;;;;;;;;;;16.25;55.84;101208.63;5057860;28;1871;-48
2023/10/30 12:01:53;;;;;;;;;;;;;;;16.31;56.05;101195.78;5086362;28;1901;-48
2023/10/30 12:04:22;;;;;;;;;;;;;;;17.56;54.27;101194.34;5073930;28;1031;-48
2023/10/30 12:06:48;;;;;;;;;;;;;;;16.86;55.81;101196.47;5076223;28;1087;-47
2023/10/30 12:09:14;;;;;;;;;;;;;;;16.58;56.27;101193.00;5076473;28;1127;-47
2023/10/30 12:11:40;;;;;;;;;;;;;;;16.43;56.35;101197.25;5088392;28;1027;-44
2023/10/30 12:14:05;;;;;;;;;;;;;;;16.36;56.26;101193.91;5077426;28;1531;-46
2023/10/30 12:16:33;;;;;;;;;;;;;;;16.35;56.05;101192.25;5088154;28;1090;-47
2023/10/30 12:18:59;;;;;;;;;;;;;;;16.27;56.12;101200.13;5095445;28;1187;-47
2023/10/30 12:21:24;;;;;;;;;;;;;;;16.70;56.07;101199.09;5083046;28;1984;-46
2023/10/30 12:23:52;;;;;;;;;;;;;;;17.18;55.34;101184.56;5070360;28;1055;-45
2023/10/30 12:26:17;;;;;;;;;;;;;;;16.67;56.37;101194.13;5080992;28;1332;-47
2023/10/30 12:28:43;;;;;;;;;;;;;;;16.52;56.41;101191.28;5086548;28;1914;-44
2023/10/30 12:31:19;;;;;;;;;;;;;;;16.39;56.34;101187.06;5088575;28;1347;-47
2023/10/30 12:33:44;;;;;;;;;;;;;;;16.33;56.04;101177.97;5091005;28;1260;-47
2023/10/30 12:36:10;;;;;;;;;;;;;;;16.23;56.18;101189.69;5085595;28;1073;-44
2023/10/30 12:38:35;;;;;;;;;;;;;;;16.19;56.15;101177.56;5078265;28;1161;-49
2023/10/30 12:41:06;;;;;;;;;;;;;;;16.14;56.11;101187.69;5074348;28;1905;-47